Martha's Vineyard, MA

2:21 PM EDT on August 29, 2014 (GMT -0400)
Martha's Vineyard | Change Station
CLOSE
Current Station
Airport
Location: Martha's Vineyard,
Elevation: 69 ft
Nearby Weather Stations

Elev 69 ft 41.39 °N, 70.61 °W | Updated 28 minutes ago

Mostly Cloudy
Mostly Cloudy
70 °F
Feels Like 70 °F
N
12
Wind Variable Wind from NE

Today
High -- | Low -- °F
--% Chance of Precip.
Yesterday
High -- | Low -- °F
Precip. -- in
6:05 AM 7:20 PM
Waxing Crescent, 15% visible
Pressure 30.19 in
Visibility 10.0 miles
Clouds Mostly Cloudy 3500 ft
Dew Point 54 °F
Humidity 57%
Rainfall 0.00 in
Snow Depth Not available.
UV 5 out of 12
Pollen 7.90 out of 12
Ozone Good
Flu Activity Not available.
METAR KMVY 291753Z 05010KT 10SM BKN035 21/12 A3019 RMK AO2 SLP222 6//// T02110122 10228 20178 51008

More Conditions Fewer Conditions

Pressure 30.19 in
Visibility 10.0 miles
Clouds Mostly Cloudy 3500 ft
Dew Point 54 °F
Humidity 57%
Rainfall 0.00 in
Snow Depth Not available.
UV 5 out of 12
Pollen 7.90 out of 12
Ozone Good
Flu Activity Not available.
METAR KMVY 291753Z 05010KT 10SM BKN035 21/12 A3019 RMK AO2 SLP222 6//// T02110122 10228 20178 51008

More Conditions Fewer Conditions

10-Day Weather Forecast

Almanac

Astronomy

Aug. 29, 2014 Rise Set
Actual Time 6:05 AM EDT 7:20 PM EDT
Civil Twilight 5:37 AM EDT 7:48 PM EDT
Nautical Twilight 5:02 AM EDT 8:23 PM EDT
Astronomical Twilight 4:26 AM EDT 8:58 PM EDT
Moon 9:55 AM EDT 9:12 PM EDT
Length of Visible Light 14h 11m
Length of Day
13h 14m
Tomorrow will be 2m 38s shorter.
Waxing Crescent, 15% of the Moon is Illuminated
Today
Waxing Crescent
Sep 2
First Quarter
Sep 8
Full
Sep 15
Last Quarter
Sep 24
New

Today's Extremes

State Highs State Lows

Community

WunderPhotos

Upload Photos

1,748,310 photos uploaded!

Nearby

Air Quality

  Air Quality AQ Index Pollutant
Yesterday Good
OZONE
Current Good
OZONE
Friday Good
PM2.5
Friday Good
OZONE

Snow Depth

Station Depth Elevation
No new snow has been reported.

Earthquake Activity

City Distance Mag. Time & Date
No recent earthquake activity has been reported nearby.
Minimum magnitude displayed is 2.5.

Coastal Water Temperatures

Place Temperature
Nantucket Island, MA 73.0 °F
Woods Hole, MA 71.1 °F
Fall River, MA 73.0 °F
Boston, MA 68.0 °F

Nearby Weather Stations